Time;durP1;ratioP1;P1;durP2;ratioP2;P2;SDS_P1;SDS_P2;PMS_P1;PMS_P2;Temp;Humidity;BMP_temperature;BMP_pressure;BME280_temperature;BME280_humidity;BME280_pressure;Samples;Min_cycle;Max_cycle;Signal;HPM_P1;HPM_P2
2023/08/20 00:01:41;;;;;;;17.60;16.00;;;;;;;;;;6156430;23;20407;-62
2023/08/20 00:04:08;;;;;;;14.97;13.87;;;;;;;;;;6156365;23;20526;-62
2023/08/20 00:06:36;;;;;;;15.20;14.20;;;;;;;;;;6156481;23;20490;-62
2023/08/20 00:09:06;;;;;;;16.20;15.00;;;;;;;;;;6156437;23;20789;-62
2023/08/20 00:11:33;;;;;;;16.07;14.87;;;;;;;;;;6166156;23;20392;-62
2023/08/20 00:14:00;;;;;;;15.63;14.43;;;;;;;;;;6156468;23;20481;-62
2023/08/20 00:16:27;;;;;;;15.10;14.00;;;;;;;;;;6156086;23;20990;-62
2023/08/20 00:18:55;;;;;;;15.20;14.07;;;;;;;;;;6156359;23;20406;-62
2023/08/20 00:21:22;;;;;;;15.57;14.37;;;;;;;;;;6156177;23;20487;-62
2023/08/20 00:23:50;;;;;;;16.20;14.70;;;;;;;;;;6156617;23;20525;-62
2023/08/20 00:26:17;;;;;;;16.37;15.17;;;;;;;;;;6156325;23;20486;-62
2023/08/20 00:28:44;;;;;;;15.37;14.20;;;;;;;;;;6156380;23;20489;-62
2023/08/20 00:31:10;;;;;;;15.27;14.00;;;;;;;;;;6156324;23;20503;-62
2023/08/20 00:33:38;;;;;;;16.47;14.97;;;;;;;;;;6156158;23;20498;-62
2023/08/20 00:36:06;;;;;;;15.87;14.67;;;;;;;;;;6156357;23;20410;-62
2023/08/20 00:38:35;;;;;;;16.07;14.83;;;;;;;;;;6156098;23;20466;-62
2023/08/20 00:41:02;;;;;;;16.23;15.00;;;;;;;;;;6156076;23;20434;-62
2023/08/20 00:43:29;;;;;;;15.83;14.53;;;;;;;;;;6156054;23;20525;-62
2023/08/20 00:45:56;;;;;;;15.60;14.50;;;;;;;;;;6156200;23;20489;-62
2023/08/20 00:48:23;;;;;;;17.40;16.20;;;;;;;;;;6155825;23;20489;-62
2023/08/20 00:50:50;;;;;;;17.90;16.23;;;;;;;;;;6155728;23;20509;-62
2023/08/20 00:53:19;;;;;;;17.17;15.87;;;;;;;;;;6156220;23;20495;-62
2023/08/20 00:55:45;;;;;;;15.83;14.73;;;;;;;;;;6155705;23;20933;-62
2023/08/20 00:58:14;;;;;;;15.00;13.80;;;;;;;;;;6156140;23;20490;-62
2023/08/20 01:00:42;;;;;;;17.13;15.73;;;;;;;;;;6156007;23;20704;-62
2023/08/20 01:03:09;;;;;;;16.90;15.60;;;;;;;;;;6156010;23;20453;-62
2023/08/20 01:05:40;;;;;;;17.30;15.90;;;;;;;;;;6156149;23;20494;-62
2023/08/20 01:08:13;;;;;;;16.67;15.27;;;;;;;;;;6167555;23;20485;-62
2023/08/20 01:10:48;;;;;;;17.20;15.90;;;;;;;;;;6167796;23;20477;-62
2023/08/20 01:13:16;;;;;;;18.00;16.50;;;;;;;;;;6167954;23;20398;-62
2023/08/20 01:15:43;;;;;;;16.47;15.17;;;;;;;;;;6158081;23;20414;-62
2023/08/20 01:18:10;;;;;;;16.13;14.93;;;;;;;;;;6158137;23;20493;-62
2023/08/20 01:20:40;;;;;;;16.17;14.93;;;;;;;;;;6158101;23;20485;-62
2023/08/20 01:23:16;;;;;;;16.13;14.90;;;;;;;;;;6157758;23;20517;-62
2023/08/20 01:25:51;;;;;;;16.67;15.40;;;;;;;;;;6167850;23;20760;-62
2023/08/20 01:28:27;;;;;;;15.60;14.30;;;;;;;;;;6167681;23;20426;-62
2023/08/20 01:30:55;;;;;;;16.10;14.80;;;;;;;;;;6157888;23;20493;-62
2023/08/20 01:33:22;;;;;;;17.00;15.60;;;;;;;;;;6157899;23;20415;-63
2023/08/20 01:35:49;;;;;;;17.17;15.87;;;;;;;;;;6157924;23;20787;-62
2023/08/20 01:38:16;;;;;;;16.27;15.07;;;;;;;;;;6157900;23;20495;-62
2023/08/20 01:40:43;;;;;;;16.13;14.93;;;;;;;;;;6157908;23;20497;-62
2023/08/20 01:43:09;;;;;;;17.10;15.80;;;;;;;;;;6157850;23;20521;-62
2023/08/20 01:45:38;;;;;;;15.50;14.30;;;;;;;;;;6157838;23;20469;-62
2023/08/20 01:48:05;;;;;;;16.10;14.83;;;;;;;;;;6157742;23;20498;-62
2023/08/20 01:50:32;;;;;;;17.33;16.13;;;;;;;;;;6157379;23;20462;-62
2023/08/20 01:52:59;;;;;;;17.07;15.80;;;;;;;;;;6157775;23;20784;-62
2023/08/20 01:55:25;;;;;;;17.80;16.40;;;;;;;;;;6157795;23;20494;-62
2023/08/20 01:57:52;;;;;;;16.50;15.30;;;;;;;;;;6157746;23;20494;-62
2023/08/20 02:00:19;;;;;;;17.00;15.80;;;;;;;;;;6157662;23;20407;-62
2023/08/20 02:02:47;;;;;;;16.00;14.70;;;;;;;;;;6157588;23;20438;-62
2023/08/20 02:05:14;;;;;;;17.50;16.17;;;;;;;;;;6157571;23;20523;-62
2023/08/20 02:07:41;;;;;;;16.70;15.30;;;;;;;;;;6157987;23;20490;-62
2023/08/20 02:10:09;;;;;;;16.83;15.43;;;;;;;;;;6157611;23;20402;-62
2023/08/20 02:12:36;;;;;;;15.73;14.50;;;;;;;;;;6157539;23;20407;-62
2023/08/20 02:15:03;;;;;;;15.83;14.40;;;;;;;;;;6157508;23;20493;-62
2023/08/20 02:17:30;;;;;;;15.27;13.87;;;;;;;;;;6157358;23;20462;-62
2023/08/20 02:19:58;;;;;;;14.97;13.67;;;;;;;;;;6157569;23;20486;-62
2023/08/20 02:22:25;;;;;;;14.53;13.40;;;;;;;;;;6157444;23;20494;-62
2023/08/20 02:24:52;;;;;;;15.13;13.73;;;;;;;;;;6157345;23;20810;-62
2023/08/20 02:27:19;;;;;;;14.40;12.37;;;;;;;;;;6157444;23;20485;-62
2023/08/20 02:29:46;;;;;;;14.50;13.27;;;;;;;;;;6157414;23;20489;-63
2023/08/20 02:32:12;;;;;;;13.47;12.37;;;;;;;;;;6157472;23;20495;-62
2023/08/20 02:34:39;;;;;;;13.67;12.57;;;;;;;;;;6157444;23;20450;-62
2023/08/20 02:37:07;;;;;;;14.23;13.00;;;;;;;;;;6157405;23;20506;-62
2023/08/20 02:39:35;;;;;;;13.80;12.70;;;;;;;;;;6157291;23;20411;-62
2023/08/20 02:42:02;;;;;;;14.13;13.03;;;;;;;;;;6157244;23;20486;-62
2023/08/20 02:44:29;;;;;;;13.87;12.67;;;;;;;;;;6157175;23;20525;-62
2023/08/20 02:46:56;;;;;;;13.97;12.90;;;;;;;;;;6157328;23;20498;-62
2023/08/20 02:49:23;;;;;;;13.77;12.63;;;;;;;;;;6157042;23;20514;-62
2023/08/20 02:51:49;;;;;;;14.60;12.97;;;;;;;;;;6157227;23;20491;-62
2023/08/20 02:54:18;;;;;;;14.33;13.03;;;;;;;;;;6156850;23;20486;-62
2023/08/20 02:56:44;;;;;;;13.60;12.50;;;;;;;;;;6157176;23;20776;-63
2023/08/20 02:59:11;;;;;;;13.67;12.27;;;;;;;;;;6157205;23;20430;-62
2023/08/20 03:01:39;;;;;;;13.90;12.80;;;;;;;;;;6157144;23;20802;-62
2023/08/20 03:04:06;;;;;;;14.57;13.00;;;;;;;;;;6157039;23;20430;-62
2023/08/20 03:06:33;;;;;;;14.77;13.47;;;;;;;;;;6157059;23;20793;-62
2023/08/20 03:09:00;;;;;;;15.10;13.43;;;;;;;;;;6157025;23;20441;-62
2023/08/20 03:11:28;;;;;;;12.97;11.93;;;;;;;;;;6157104;23;20696;-62
2023/08/20 03:13:55;;;;;;;16.93;13.07;;;;;;;;;;6156994;23;20692;-63
2023/08/20 03:16:22;;;;;;;13.60;12.60;;;;;;;;;;6156929;23;20441;-62
2023/08/20 03:18:49;;;;;;;12.83;11.53;;;;;;;;;;6156626;23;20891;-62
2023/08/20 03:21:17;;;;;;;13.80;12.63;;;;;;;;;;6157012;23;20486;-62
2023/08/20 03:23:44;;;;;;;14.37;13.07;;;;;;;;;;6156732;23;20529;-62
2023/08/20 03:26:13;;;;;;;13.83;12.40;;;;;;;;;;6156971;23;20494;-62
2023/08/20 03:28:41;;;;;;;13.73;12.63;;;;;;;;;;6156647;23;20434;-62
2023/08/20 03:31:08;;;;;;;13.70;12.43;;;;;;;;;;6156582;23;20494;-62
2023/08/20 03:33:35;;;;;;;12.93;11.93;;;;;;;;;;6156897;23;20493;-62
2023/08/20 03:36:02;;;;;;;13.03;12.00;;;;;;;;;;6156835;23;20494;-62
2023/08/20 03:38:29;;;;;;;14.43;13.20;;;;;;;;;;6156734;23;20418;-62
2023/08/20 03:40:56;;;;;;;13.73;12.53;;;;;;;;;;6156811;23;20407;-62
2023/08/20 03:43:23;;;;;;;14.70;13.50;;;;;;;;;;6156675;23;20490;-62
2023/08/20 03:45:52;;;;;;;14.00;12.77;;;;;;;;;;6156341;23;20970;-62
2023/08/20 03:48:20;;;;;;;13.47;12.30;;;;;;;;;;6156612;23;20446;-62
2023/08/20 03:50:47;;;;;;;13.37;12.03;;;;;;;;;;6156210;23;20438;-62
2023/08/20 03:53:14;;;;;;;13.13;12.03;;;;;;;;;;6156664;23;20509;-62
2023/08/20 03:55:40;;;;;;;12.73;11.73;;;;;;;;;;6156601;23;20498;-62
2023/08/20 03:58:08;;;;;;;14.07;12.57;;;;;;;;;;6156632;23;20493;-62
2023/08/20 04:00:35;;;;;;;13.37;12.17;;;;;;;;;;6156533;23;20406;-62
2023/08/20 04:03:04;;;;;;;18.00;13.20;;;;;;;;;;6156471;23;20413;-62
2023/08/20 04:05:31;;;;;;;14.10;12.87;;;;;;;;;;6155935;23;20954;-63
2023/08/20 04:07:58;;;;;;;13.90;12.70;;;;;;;;;;6156542;23;20490;-62
2023/08/20 04:10:25;;;;;;;13.77;12.40;;;;;;;;;;6156466;23;20441;-62
2023/08/20 04:12:51;;;;;;;12.03;11.00;;;;;;;;;;6156458;23;20906;-62
2023/08/20 04:15:18;;;;;;;12.60;11.60;;;;;;;;;;6156408;23;20510;-62
2023/08/20 04:17:45;;;;;;;13.10;12.17;;;;;;;;;;6156465;23;20486;-62
2023/08/20 04:20:15;;;;;;;12.83;11.73;;;;;;;;;;6156441;23;20431;-64
2023/08/20 04:22:42;;;;;;;13.20;12.00;;;;;;;;;;6166122;23;20764;-63
2023/08/20 04:25:09;;;;;;;13.63;12.30;;;;;;;;;;6156247;23;20442;-62
2023/08/20 04:27:36;;;;;;;13.40;12.00;;;;;;;;;;6155947;23;20923;-62
2023/08/20 04:30:05;;;;;;;14.20;12.90;;;;;;;;;;6156381;23;20490;-62
2023/08/20 04:32:32;;;;;;;12.97;11.87;;;;;;;;;;6156157;23;20441;-62
2023/08/20 04:34:59;;;;;;;12.10;11.10;;;;;;;;;;6156302;23;20502;-62
2023/08/20 04:37:27;;;;;;;13.13;11.83;;;;;;;;;;6155909;23;20913;-62
2023/08/20 04:39:54;;;;;;;12.23;11.23;;;;;;;;;;6156255;23;20497;-62
2023/08/20 04:42:21;;;;;;;12.10;11.10;;;;;;;;;;6155927;23;20953;-62
2023/08/20 04:44:48;;;;;;;12.00;11.07;;;;;;;;;;6156262;23;20518;-62
2023/08/20 04:47:15;;;;;;;12.57;11.23;;;;;;;;;;6165510;23;20430;-62
2023/08/20 04:49:42;;;;;;;11.50;10.50;;;;;;;;;;6155885;23;20458;-62
2023/08/20 04:52:09;;;;;;;11.67;10.77;;;;;;;;;;6156183;23;20498;-62
2023/08/20 04:54:37;;;;;;;12.20;11.20;;;;;;;;;;6156216;23;20796;-62
2023/08/20 04:57:04;;;;;;;11.93;10.87;;;;;;;;;;6156122;23;20792;-62
2023/08/20 04:59:31;;;;;;;11.20;10.20;;;;;;;;;;6156121;23;20441;-62
2023/08/20 05:01:58;;;;;;;12.00;10.90;;;;;;;;;;6156205;23;20489;-62
2023/08/20 05:04:24;;;;;;;11.70;10.70;;;;;;;;;;6156104;23;20517;-62
2023/08/20 05:06:51;;;;;;;10.60;9.80;;;;;;;;;;6156214;23;20807;-62
2023/08/20 05:09:18;;;;;;;12.30;11.20;;;;;;;;;;6156056;23;20407;-62
2023/08/20 05:11:46;;;;;;;12.10;10.90;;;;;;;;;;6156110;23;20498;-62
2023/08/20 05:14:13;;;;;;;11.73;10.80;;;;;;;;;;6156021;23;20498;-62
2023/08/20 05:16:40;;;;;;;10.97;10.03;;;;;;;;;;6156499;23;20971;-62
2023/08/20 05:19:07;;;;;;;12.67;10.90;;;;;;;;;;6156003;23;20457;-62
2023/08/20 05:21:34;;;;;;;12.50;11.60;;;;;;;;;;6155969;23;20555;-63
2023/08/20 05:24:01;;;;;;;12.33;11.23;;;;;;;;;;6156024;23;20788;-62
2023/08/20 05:26:28;;;;;;;11.63;10.53;;;;;;;;;;6156021;23;20749;-62
2023/08/20 05:28:56;;;;;;;12.40;11.40;;;;;;;;;;6156032;23;20489;-62
2023/08/20 05:31:23;;;;;;;11.60;10.63;;;;;;;;;;6155848;23;20502;-62
2023/08/20 05:33:50;;;;;;;11.50;10.60;;;;;;;;;;6155997;23;20510;-62
2023/08/20 05:36:17;;;;;;;11.30;10.30;;;;;;;;;;6156016;23;20490;-62
2023/08/20 05:38:44;;;;;;;14.03;11.53;;;;;;;;;;6155572;23;20933;-62
2023/08/20 05:41:11;;;;;;;12.10;11.10;;;;;;;;;;6155979;23;20837;-62
2023/08/20 05:43:37;;;;;;;12.97;11.77;;;;;;;;;;6155878;23;20497;-63
2023/08/20 05:46:06;;;;;;;12.30;11.10;;;;;;;;;;6155821;23;20521;-63
2023/08/20 05:48:33;;;;;;;11.90;10.87;;;;;;;;;;6155581;23;20438;-62
2023/08/20 05:50:59;;;;;;;11.93;10.83;;;;;;;;;;6155432;23;20525;-62
2023/08/20 05:53:26;;;;;;;10.77;9.90;;;;;;;;;;6156964;23;20485;-62
2023/08/20 05:55:53;;;;;;;14.00;12.80;;;;;;;;;;6157655;23;20437;-62
2023/08/20 05:58:20;;;;;;;11.03;10.17;;;;;;;;;;6157353;23;20974;-62
2023/08/20 06:00:47;;;;;;;11.80;10.70;;;;;;;;;;6157641;23;20451;-62
2023/08/20 06:03:15;;;;;;;11.80;10.70;;;;;;;;;;6157318;23;20909;-62
2023/08/20 06:05:43;;;;;;;12.20;10.63;;;;;;;;;;6157321;23;20443;-62
2023/08/20 06:08:10;;;;;;;11.47;10.53;;;;;;;;;;6157478;23;20499;-62
2023/08/20 06:10:36;;;;;;;13.67;11.93;;;;;;;;;;6157570;23;20493;-62
2023/08/20 06:13:04;;;;;;;11.17;10.13;;;;;;;;;;6157635;23;20407;-62
2023/08/20 06:15:31;;;;;;;11.53;10.63;;;;;;;;;;6157437;23;20469;-62
2023/08/20 06:17:58;;;;;;;12.17;11.23;;;;;;;;;;6157492;23;20443;-62
2023/08/20 06:20:26;;;;;;;11.97;11.00;;;;;;;;;;6157445;23;20539;-62
2023/08/20 06:22:53;;;;;;;11.93;10.93;;;;;;;;;;6157372;23;20489;-62
2023/08/20 06:25:20;;;;;;;11.70;10.80;;;;;;;;;;6157308;23;20529;-62
2023/08/20 06:27:47;;;;;;;12.30;11.40;;;;;;;;;;6157151;23;20914;-62
2023/08/20 06:30:14;;;;;;;10.80;9.90;;;;;;;;;;6157879;23;20453;-62
2023/08/20 06:32:41;;;;;;;12.23;11.20;;;;;;;;;;6157316;23;20426;-62
2023/08/20 06:35:09;;;;;;;13.53;11.37;;;;;;;;;;6157340;23;20442;-62
2023/08/20 06:37:38;;;;;;;12.17;11.07;;;;;;;;;;6157172;23;20416;-62
2023/08/20 06:40:05;;;;;;;11.37;10.50;;;;;;;;;;6157234;23;20438;-62
2023/08/20 06:42:32;;;;;;;11.00;10.00;;;;;;;;;;6157250;23;20485;-62
2023/08/20 06:44:59;;;;;;;11.63;10.50;;;;;;;;;;6157188;23;20751;-62
2023/08/20 06:47:26;;;;;;;12.47;11.20;;;;;;;;;;6157355;23;20497;-62
2023/08/20 06:49:53;;;;;;;11.40;10.50;;;;;;;;;;6156553;23;21022;-62
2023/08/20 06:52:19;;;;;;;12.43;11.13;;;;;;;;;;6157267;23;20510;-62
2023/08/20 06:54:48;;;;;;;11.87;10.87;;;;;;;;;;6157182;23;20491;-63
2023/08/20 06:57:14;;;;;;;12.50;11.50;;;;;;;;;;6157081;23;20490;-62
2023/08/20 06:59:43;;;;;;;12.37;11.37;;;;;;;;;;6157133;23;20493;-62
2023/08/20 07:02:10;;;;;;;12.63;11.63;;;;;;;;;;6157044;23;20407;-62
2023/08/20 07:04:37;;;;;;;12.80;11.50;;;;;;;;;;6156492;23;20431;-63
2023/08/20 07:07:06;;;;;;;12.07;11.17;;;;;;;;;;6157099;23;20414;-62
2023/08/20 07:09:33;;;;;;;12.80;11.60;;;;;;;;;;6156954;23;20410;-62
2023/08/20 07:12:01;;;;;;;11.87;10.77;;;;;;;;;;6157076;23;20784;-62
2023/08/20 07:14:28;;;;;;;11.40;10.40;;;;;;;;;;6156854;23;20494;-62
2023/08/20 07:16:55;;;;;;;11.83;10.87;;;;;;;;;;6157018;23;20716;-62
2023/08/20 07:19:22;;;;;;;12.53;10.90;;;;;;;;;;6156867;23;20410;-62
2023/08/20 07:21:49;;;;;;;13.27;12.00;;;;;;;;;;6156934;23;20489;-62
2023/08/20 07:24:16;;;;;;;11.37;10.50;;;;;;;;;;6156857;23;20403;-62
2023/08/20 07:26:43;;;;;;;11.80;10.80;;;;;;;;;;6156799;23;20442;-62
2023/08/20 07:29:11;;;;;;;11.17;10.27;;;;;;;;;;6156829;23;20410;-62
2023/08/20 07:31:38;;;;;;;11.40;10.60;;;;;;;;;;6156340;23;20959;-62
2023/08/20 07:34:05;;;;;;;11.37;10.50;;;;;;;;;;6156818;23;20442;-62
2023/08/20 07:36:32;;;;;;;12.53;11.53;;;;;;;;;;6156693;23;20447;-62
2023/08/20 07:39:00;;;;;;;11.80;10.73;;;;;;;;;;6156639;23;20449;-62
2023/08/20 07:41:27;;;;;;;12.33;11.20;;;;;;;;;;6156694;23;20494;-62
2023/08/20 07:43:54;;;;;;;11.73;10.77;;;;;;;;;;6156641;23;20435;-62
2023/08/20 07:46:22;;;;;;;12.00;11.10;;;;;;;;;;6156523;23;20831;-62
2023/08/20 07:48:49;;;;;;;10.03;9.30;;;;;;;;;;6156322;23;20498;-62
2023/08/20 07:51:16;;;;;;;11.37;10.37;;;;;;;;;;6156642;23;20435;-62
2023/08/20 07:53:43;;;;;;;12.03;10.80;;;;;;;;;;6156216;23;20494;-62
2023/08/20 07:56:10;;;;;;;10.67;9.80;;;;;;;;;;6156512;23;20446;-62
2023/08/20 07:58:38;;;;;;;11.87;10.97;;;;;;;;;;6156609;23;20434;-62
2023/08/20 08:01:05;;;;;;;12.83;11.67;;;;;;;;;;6156446;23;20493;-62
2023/08/20 08:03:36;;;;;;;12.83;11.63;;;;;;;;;;6156518;23;20392;-63
2023/08/20 08:06:02;;;;;;;11.77;10.73;;;;;;;;;;6156327;23;20830;-62
2023/08/20 08:08:29;;;;;;;11.50;10.50;;;;;;;;;;6156512;23;20435;-62
2023/08/20 08:10:56;;;;;;;11.83;10.73;;;;;;;;;;6156159;23;20490;-62
2023/08/20 08:13:24;;;;;;;12.93;11.63;;;;;;;;;;6156460;23;20773;-63
2023/08/20 08:15:51;;;;;;;12.70;11.50;;;;;;;;;;6155807;23;20989;-62
2023/08/20 08:18:18;;;;;;;12.73;11.70;;;;;;;;;;6156408;23;20410;-62
2023/08/20 08:20:46;;;;;;;11.17;10.17;;;;;;;;;;6156388;23;20458;-62
2023/08/20 08:23:13;;;;;;;11.60;10.67;;;;;;;;;;6156204;23;20461;-62
2023/08/20 08:25:41;;;;;;;11.23;10.30;;;;;;;;;;6156277;23;20509;-62
2023/08/20 08:28:08;;;;;;;12.47;11.30;;;;;;;;;;6156324;23;20438;-62
2023/08/20 08:30:35;;;;;;;11.93;11.03;;;;;;;;;;6156293;23;20502;-62
2023/08/20 08:33:02;;;;;;;11.80;11.00;;;;;;;;;;6156176;23;20494;-62
2023/08/20 08:35:28;;;;;;;10.10;9.37;;;;;;;;;;6156237;23;20708;-62
2023/08/20 08:37:57;;;;;;;11.83;10.67;;;;;;;;;;6156317;23;20439;-62
2023/08/20 08:40:25;;;;;;;12.27;11.17;;;;;;;;;;6156171;23;20801;-62
2023/08/20 08:42:51;;;;;;;11.43;10.40;;;;;;;;;;6156071;23;20556;-62
2023/08/20 08:45:20;;;;;;;12.23;11.30;;;;;;;;;;6156095;23;20462;-62
2023/08/20 08:47:49;;;;;;;11.60;10.80;;;;;;;;;;6155787;23;20954;-62
2023/08/20 08:50:16;;;;;;;12.50;11.30;;;;;;;;;;6155642;23;20533;-62
2023/08/20 08:52:45;;;;;;;12.30;11.30;;;;;;;;;;6156055;23;20489;-62
2023/08/20 08:55:13;;;;;;;12.17;11.20;;;;;;;;;;6155384;23;20493;-62
2023/08/20 08:57:40;;;;;;;11.00;10.00;;;;;;;;;;6155683;23;20966;-62
2023/08/20 09:00:07;;;;;;;10.70;9.90;;;;;;;;;;6155975;23;20486;-62
2023/08/20 09:02:34;;;;;;;11.10;9.90;;;;;;;;;;6156014;23;20667;-62
2023/08/20 09:05:01;;;;;;;11.40;10.50;;;;;;;;;;6155984;23;20465;-62
2023/08/20 09:07:28;;;;;;;11.53;10.40;;;;;;;;;;6155500;23;20966;-62
2023/08/20 09:10:00;;;;;;;11.90;10.97;;;;;;;;;;6156025;23;20489;-62
2023/08/20 09:12:28;;;;;;;13.20;12.00;;;;;;;;;;6165796;23;20469;-63
2023/08/20 09:14:57;;;;;;;10.70;9.77;;;;;;;;;;6155877;23;20411;-62
2023/08/20 09:17:26;;;;;;;10.67;9.80;;;;;;;;;;6155945;23;20411;-62
2023/08/20 09:19:55;;;;;;;13.07;11.97;;;;;;;;;;6155846;23;20497;-62
2023/08/20 09:22:24;;;;;;;10.93;10.07;;;;;;;;;;6155833;23;20768;-62
2023/08/20 09:24:54;;;;;;;12.60;10.90;;;;;;;;;;6155824;23;20399;-62
2023/08/20 09:27:23;;;;;;;11.47;10.27;;;;;;;;;;6165482;23;20509;-62
2023/08/20 09:29:53;;;;;;;12.17;11.00;;;;;;;;;;6157816;23;20407;-62
2023/08/20 09:32:20;;;;;;;11.70;10.70;;;;;;;;;;6157768;23;20418;-62
2023/08/20 09:34:48;;;;;;;10.10;9.20;;;;;;;;;;6157801;23;20804;-62
2023/08/20 09:37:16;;;;;;;10.83;9.67;;;;;;;;;;6157809;23;20490;-63
2023/08/20 09:39:43;;;;;;;10.63;9.83;;;;;;;;;;6157865;23;20407;-62
2023/08/20 09:42:10;;;;;;;10.83;9.83;;;;;;;;;;6157897;23;20917;-62
2023/08/20 09:44:38;;;;;;;10.93;9.93;;;;;;;;;;6157787;23;20489;-62
2023/08/20 09:47:07;;;;;;;10.70;9.90;;;;;;;;;;6157642;23;20824;-62
2023/08/20 09:49:40;;;;;;;10.90;9.73;;;;;;;;;;6157251;23;20803;-62
2023/08/20 09:52:08;;;;;;;9.73;8.93;;;;;;;;;;6167165;23;20926;-62
2023/08/20 09:54:45;;;;;;;10.43;9.53;;;;;;;;;;6157713;23;20439;-62
2023/08/20 09:57:16;;;;;;;10.80;9.87;;;;;;;;;;6167309;23;20666;-62
2023/08/20 09:59:44;;;;;;;11.27;10.43;;;;;;;;;;6167421;23;20394;-62
2023/08/20 10:02:13;;;;;;;9.87;9.07;;;;;;;;;;6157609;23;20526;-62
2023/08/20 10:04:40;;;;;;;10.30;9.40;;;;;;;;;;6157328;23;20457;-62
2023/08/20 10:07:07;;;;;;;11.53;10.60;;;;;;;;;;6157404;23;20529;-62
2023/08/20 10:09:34;;;;;;;10.77;9.97;;;;;;;;;;6157609;23;20434;-62
2023/08/20 10:12:06;;;;;;;11.03;10.03;;;;;;;;;;6157202;23;20493;-62
2023/08/20 10:14:33;;;;;;;10.63;9.67;;;;;;;;;;6167185;23;20752;-62
2023/08/20 10:17:01;;;;;;;9.77;9.07;;;;;;;;;;6157390;23;20490;-62
2023/08/20 10:19:29;;;;;;;9.33;8.63;;;;;;;;;;6157418;23;20449;-62
2023/08/20 10:21:57;;;;;;;9.27;8.50;;;;;;;;;;6157485;23;20744;-62
2023/08/20 10:24:25;;;;;;;9.10;8.50;;;;;;;;;;6157309;23;20801;-62
2023/08/20 10:27:08;;;;;;;9.37;8.43;;;;;;;;;;6157240;23;20529;-62
2023/08/20 10:29:38;;;;;;;9.77;9.07;;;;;;;;;;6167093;23;20764;-62
2023/08/20 10:32:12;;;;;;;9.33;8.63;;;;;;;;;;6156983;23;20411;-62
2023/08/20 10:34:41;;;;;;;9.60;8.80;;;;;;;;;;6157267;23;20411;-62
2023/08/20 10:37:10;;;;;;;9.50;8.70;;;;;;;;;;6157188;23;20489;-63
2023/08/20 10:39:37;;;;;;;9.00;8.30;;;;;;;;;;6157114;23;20424;-62
2023/08/20 10:42:11;;;;;;;7.70;7.20;;;;;;;;;;6157269;23;20410;-63
2023/08/20 10:44:57;;;;;;;8.33;7.83;;;;;;;;;;6157051;23;20406;-62
2023/08/20 10:47:24;;;;;;;7.47;6.97;;;;;;;;;;6157123;23;20599;-62
2023/08/20 10:49:53;;;;;;;8.07;7.30;;;;;;;;;;6156570;23;20961;-62
2023/08/20 10:52:20;;;;;;;8.27;7.40;;;;;;;;;;6157052;23;20983;-62
2023/08/20 10:54:47;;;;;;;11.97;8.03;;;;;;;;;;6157460;23;20414;-62
2023/08/20 10:57:13;;;;;;;7.97;7.30;;;;;;;;;;6157143;23;20494;-62
2023/08/20 10:59:41;;;;;;;6.80;6.27;;;;;;;;;;6157113;23;20768;-62
2023/08/20 11:02:13;;;;;;;7.47;6.90;;;;;;;;;;6156839;23;20434;-63
2023/08/20 11:04:40;;;;;;;7.17;6.77;;;;;;;;;;6166807;23;20482;-62
2023/08/20 11:07:09;;;;;;;7.90;6.30;;;;;;;;;;6156900;23;20501;-63
2023/08/20 11:09:39;;;;;;;6.90;6.40;;;;;;;;;;6156795;23;20482;-62
2023/08/20 11:12:07;;;;;;;6.20;5.80;;;;;;;;;;6166636;23;20482;-62
2023/08/20 11:14:34;;;;;;;5.53;5.20;;;;;;;;;;6156916;23;20411;-62
2023/08/20 11:17:01;;;;;;;6.13;5.53;;;;;;;;;;6157022;23;20593;-63
2023/08/20 11:19:29;;;;;;;5.53;5.13;;;;;;;;;;6156908;23;20443;-63
2023/08/20 11:21:56;;;;;;;5.00;4.70;;;;;;;;;;6156824;23;20439;-62
2023/08/20 11:24:24;;;;;;;4.83;4.30;;;;;;;;;;6156900;23;20490;-63
2023/08/20 11:26:51;;;;;;;4.43;4.13;;;;;;;;;;6156335;23;20462;-63
2023/08/20 11:29:20;;;;;;;3.87;3.67;;;;;;;;;;6156787;23;20801;-63
2023/08/20 11:31:49;;;;;;;3.93;3.73;;;;;;;;;;6156621;23;20721;-62
2023/08/20 11:34:17;;;;;;;4.30;4.00;;;;;;;;;;6156518;23;20486;-61
2023/08/20 11:36:44;;;;;;;4.30;3.90;;;;;;;;;;6156598;23;20494;-60
2023/08/20 11:39:11;;;;;;;3.47;3.27;;;;;;;;;;6156739;23;20486;-63
2023/08/20 11:41:39;;;;;;;3.20;3.00;;;;;;;;;;6156702;23;20430;-63
2023/08/20 11:44:06;;;;;;;3.03;2.83;;;;;;;;;;6156509;23;20498;-63
2023/08/20 11:46:33;;;;;;;3.43;3.23;;;;;;;;;;6156459;23;20517;-63
2023/08/20 11:49:01;;;;;;;3.30;3.10;;;;;;;;;;6156131;23;20434;-63
2023/08/20 11:51:28;;;;;;;4.60;3.33;;;;;;;;;;6166090;23;20752;-63
2023/08/20 11:53:55;;;;;;;5.23;3.40;;;;;;;;;;6156606;23;20494;-63
2023/08/20 11:56:22;;;;;;;2.83;2.63;;;;;;;;;;6156125;23;20930;-63
2023/08/20 11:58:52;;;;;;;3.60;3.10;;;;;;;;;;6156524;23;20493;-61
2023/08/20 12:01:19;;;;;;;3.70;3.20;;;;;;;;;;6156108;23;20489;-61
2023/08/20 12:03:46;;;;;;;3.23;3.13;;;;;;;;;;6156105;23;20884;-63
2023/08/20 12:06:18;;;;;;;3.27;2.60;;;;;;;;;;6156352;23;20490;-63
2023/08/20 12:08:45;;;;;;;3.40;3.10;;;;;;;;;;6156371;23;20403;-63
2023/08/20 12:11:12;;;;;;;3.50;3.20;;;;;;;;;;6156544;23;20432;-63
2023/08/20 12:13:39;;;;;;;2.87;2.60;;;;;;;;;;6156447;23;20490;-63
2023/08/20 12:16:07;;;;;;;2.77;2.57;;;;;;;;;;6156315;23;20486;-62
2023/08/20 12:18:35;;;;;;;3.40;3.10;;;;;;;;;;6155747;23;20950;-63
2023/08/20 12:21:02;;;;;;;3.63;3.33;;;;;;;;;;6155902;23;20895;-62
2023/08/20 12:23:29;;;;;;;3.03;2.77;;;;;;;;;;6156340;23;20486;-62
2023/08/20 12:25:56;;;;;;;2.70;2.50;;;;;;;;;;6156350;23;20481;-63
2023/08/20 12:28:23;;;;;;;2.83;2.67;;;;;;;;;;6156238;23;20545;-62
2023/08/20 12:30:49;;;;;;;2.27;2.17;;;;;;;;;;6156288;23;20438;-61
2023/08/20 12:33:18;;;;;;;2.43;2.33;;;;;;;;;;6155872;23;20985;-60
2023/08/20 12:35:45;;;;;;;2.63;2.30;;;;;;;;;;6156159;23;20403;-61
2023/08/20 12:38:11;;;;;;;2.83;2.63;;;;;;;;;;6156299;23;20720;-63
2023/08/20 12:40:38;;;;;;;2.50;2.40;;;;;;;;;;6156147;23;20493;-63
2023/08/20 12:43:05;;;;;;;2.60;2.40;;;;;;;;;;6156167;23;20467;-62
2023/08/20 12:45:32;;;;;;;2.50;2.30;;;;;;;;;;6155869;23;20408;-61
2023/08/20 12:47:59;;;;;;;2.60;2.40;;;;;;;;;;6156010;23;20443;-60
2023/08/20 12:50:27;;;;;;;2.90;2.70;;;;;;;;;;6155680;23;20459;-61
2023/08/20 12:52:54;;;;;;;2.30;2.10;;;;;;;;;;6156020;23;20490;-63
2023/08/20 12:55:21;;;;;;;2.20;2.10;;;;;;;;;;6156068;23;20450;-63
2023/08/20 12:57:55;;;;;;;2.37;2.27;;;;;;;;;;6156063;23;20411;-61
2023/08/20 13:00:22;;;;;;;3.40;2.80;;;;;;;;;;6156031;23;20776;-63
2023/08/20 13:02:50;;;;;;;2.57;2.37;;;;;;;;;;6155668;23;20435;-61
2023/08/20 13:05:17;;;;;;;2.77;2.40;;;;;;;;;;6155953;23;20417;-61
2023/08/20 13:07:46;;;;;;;2.40;2.20;;;;;;;;;;6155541;23;20530;-63
2023/08/20 13:10:13;;;;;;;2.40;2.20;;;;;;;;;;6155894;23;20494;-61
2023/08/20 13:12:41;;;;;;;2.57;2.37;;;;;;;;;;6155996;23;20443;-60
2023/08/20 13:15:10;;;;;;;2.70;2.47;;;;;;;;;;6156002;23;20493;-62
2023/08/20 13:17:37;;;;;;;2.50;2.40;;;;;;;;;;6130342;23;20434;-62
2023/08/20 13:20:05;;;;;;;2.20;2.10;;;;;;;;;;6156090;23;20736;-63
2023/08/20 13:22:31;;;;;;;2.40;2.30;;;;;;;;;;6155983;23;20498;-62
2023/08/20 13:25:00;;;;;;;2.60;2.40;;;;;;;;;;6156059;23;20461;-62
2023/08/20 13:27:27;;;;;;;2.97;2.33;;;;;;;;;;6155810;23;20526;-62
2023/08/20 13:29:53;;;;;;;1.93;1.77;;;;;;;;;;6155972;23;20963;-62
2023/08/20 13:32:20;;;;;;;2.53;2.37;;;;;;;;;;6156064;23;20415;-62
2023/08/20 13:34:47;;;;;;;1.97;1.80;;;;;;;;;;6155842;23;20499;-63
2023/08/20 13:37:14;;;;;;;2.43;2.23;;;;;;;;;;6155996;23;20498;-61
2023/08/20 13:39:41;;;;;;;2.43;2.33;;;;;;;;;;6155951;23;20498;-61
2023/08/20 13:42:09;;;;;;;3.60;2.20;;;;;;;;;;6155892;23;20719;-60
2023/08/20 13:44:36;;;;;;;2.60;2.40;;;;;;;;;;6155820;23;20411;-61
2023/08/20 13:47:03;;;;;;;2.47;2.27;;;;;;;;;;6155808;23;20515;-61
2023/08/20 13:49:30;;;;;;;2.40;2.20;;;;;;;;;;6155483;23;20518;-63
2023/08/20 13:51:57;;;;;;;2.17;2.07;;;;;;;;;;6165147;23;20477;-63
2023/08/20 13:54:24;;;;;;;2.40;2.20;;;;;;;;;;6155753;23;20495;-62
2023/08/20 13:56:51;;;;;;;2.07;1.97;;;;;;;;;;6155571;23;20958;-63
2023/08/20 13:59:19;;;;;;;1.93;1.83;;;;;;;;;;6155952;23;20491;-63
2023/08/20 14:01:46;;;;;;;2.20;2.00;;;;;;;;;;6155799;23;20517;-63
2023/08/20 14:04:13;;;;;;;2.43;2.20;;;;;;;;;;6155739;23;20486;-63
2023/08/20 14:06:40;;;;;;;2.00;1.90;;;;;;;;;;6155804;23;20498;-63
2023/08/20 14:09:10;;;;;;;2.10;2.00;;;;;;;;;;6155967;23;20443;-63
2023/08/20 14:11:36;;;;;;;1.83;1.73;;;;;;;;;;6155280;23;20926;-63
2023/08/20 14:14:03;;;;;;;2.17;1.97;;;;;;;;;;6156473;23;20518;-63
2023/08/20 14:16:32;;;;;;;1.93;1.83;;;;;;;;;;6157500;23;20497;-63
2023/08/20 14:18:58;;;;;;;6.63;1.70;;;;;;;;;;6157420;23;20493;-63
2023/08/20 14:21:25;;;;;;;1.90;1.80;;;;;;;;;;6157443;23;20479;-63
2023/08/20 14:23:52;;;;;;;1.70;1.60;;;;;;;;;;6157567;23;20493;-60
2023/08/20 14:26:19;;;;;;;3.00;1.70;;;;;;;;;;6157490;23;20446;-61
2023/08/20 14:28:46;;;;;;;4.37;1.70;;;;;;;;;;6157309;23;20526;-60